createdAt,value
2018-07-21T00:02:14.454Z,5.87
2018-07-21T00:04:42.705Z,6.60
2018-07-21T00:07:10.983Z,8.13
2018-07-21T00:09:39.280Z,7.27
2018-07-21T00:12:07.552Z,13.00
2018-07-21T00:14:35.856Z,9.33
2018-07-21T00:17:04.172Z,9.67
2018-07-21T00:19:32.446Z,9.50
2018-07-21T00:22:00.713Z,10.20
2018-07-21T00:24:28.970Z,12.07
2018-07-21T00:26:57.249Z,11.20
2018-07-21T00:29:25.536Z,7.97
2018-07-21T00:31:53.821Z,9.43
2018-07-21T00:34:22.076Z,7.77
2018-07-21T00:36:50.360Z,7.50
2018-07-21T00:39:18.666Z,8.57
2018-07-21T00:41:46.941Z,9.67
2018-07-21T00:44:15.198Z,8.53
2018-07-21T00:46:43.483Z,5.97
2018-07-21T00:49:11.976Z,12.90
2018-07-21T00:51:40.258Z,6.77
2018-07-21T00:54:08.534Z,4.80
2018-07-21T00:56:36.808Z,7.90
2018-07-21T00:59:05.224Z,6.67
2018-07-21T01:01:33.226Z,9.40
2018-07-21T01:04:01.509Z,8.27
2018-07-21T01:06:29.793Z,9.63
2018-07-21T01:08:58.136Z,9.17
2018-07-21T01:11:26.437Z,5.53
2018-07-21T01:13:54.710Z,5.27
2018-07-21T01:16:23.008Z,6.03
2018-07-21T01:18:51.308Z,7.60
2018-07-21T01:21:19.572Z,4.80
2018-07-21T01:23:47.860Z,5.97
2018-07-21T01:26:16.120Z,5.97
2018-07-21T01:28:44.426Z,8.03
2018-07-21T01:31:12.906Z,7.33
2018-07-21T01:33:41.188Z,6.10
2018-07-21T01:36:09.517Z,5.33
2018-07-21T01:38:37.813Z,6.23
2018-07-21T01:41:06.190Z,6.87
2018-07-21T01:43:34.458Z,5.90
2018-07-21T01:46:02.735Z,6.83
2018-07-21T01:48:31.024Z,4.17
2018-07-21T01:50:59.274Z,4.63
2018-07-21T01:53:27.562Z,4.97
2018-07-21T01:55:55.824Z,7.60
2018-07-21T01:58:24.075Z,6.40
2018-07-21T02:00:52.325Z,5.37
2018-07-21T02:03:20.604Z,7.40
2018-07-21T02:05:48.853Z,5.57
2018-07-21T02:08:17.131Z,5.90
2018-07-21T02:10:45.391Z,7.53
2018-07-21T02:13:13.813Z,6.90
2018-07-21T02:15:42.100Z,5.33
2018-07-21T02:18:10.445Z,5.90
2018-07-21T02:20:38.707Z,6.10
2018-07-21T02:23:06.985Z,6.30
2018-07-21T02:25:35.285Z,5.57
2018-07-21T02:28:03.636Z,5.27
2018-07-21T02:30:31.896Z,4.80
2018-07-21T02:33:00.187Z,8.03
2018-07-21T02:35:28.462Z,5.10
2018-07-21T02:37:56.782Z,6.50
2018-07-21T02:40:25.060Z,4.87
2018-07-21T02:42:53.297Z,5.40
2018-07-21T02:45:21.564Z,7.97
2018-07-21T02:47:49.848Z,5.87
2018-07-21T02:50:18.161Z,5.00
2018-07-21T02:52:46.370Z,5.50
2018-07-21T02:55:14.644Z,7.97
2018-07-21T02:57:42.892Z,7.60
2018-07-21T03:00:11.797Z,9.77
2018-07-21T03:02:40.070Z,5.23
2018-07-21T03:05:08.393Z,7.97
2018-07-21T03:07:36.720Z,4.23
2018-07-21T03:10:05.568Z,6.37
2018-07-21T03:12:33.740Z,9.03
2018-07-21T03:15:25.170Z,7.90
2018-07-21T03:17:53.473Z,6.60
2018-07-21T03:20:21.764Z,4.13
2018-07-21T03:22:50.056Z,6.47
2018-07-21T03:25:18.326Z,5.20
2018-07-21T03:27:46.608Z,4.93
2018-07-21T03:30:15.146Z,7.27
2018-07-21T03:32:43.525Z,5.17
2018-07-21T03:35:11.764Z,4.70
2018-07-21T03:37:40.057Z,5.33
2018-07-21T03:40:08.364Z,5.83
2018-07-21T03:42:36.657Z,4.97
2018-07-21T03:45:04.960Z,4.70
2018-07-21T03:47:32.949Z,5.67
2018-07-21T03:50:01.253Z,8.93
2018-07-21T03:52:29.523Z,7.07
2018-07-21T03:54:57.863Z,8.30
2018-07-21T03:57:26.126Z,8.27
2018-07-21T03:59:54.428Z,10.80
2018-07-21T04:02:22.713Z,5.50
2018-07-21T04:04:50.975Z,7.40
2018-07-21T04:07:19.245Z,7.37
2018-07-21T04:09:47.524Z,7.07
2018-07-21T04:12:15.798Z,6.43
2018-07-21T04:14:44.065Z,10.90
2018-07-21T04:17:23.500Z,7.57
2018-07-21T04:19:51.801Z,7.97
2018-07-21T04:22:20.093Z,5.37
2018-07-21T04:24:48.380Z,6.63
2018-07-21T04:27:18.264Z,5.53
2018-07-21T04:29:46.584Z,6.67
2018-07-21T04:32:15.332Z,5.10
2018-07-21T04:34:43.825Z,5.83
2018-07-21T04:37:12.112Z,5.13
2018-07-21T04:39:40.386Z,5.10
2018-07-21T04:42:08.875Z,6.77
2018-07-21T04:44:37.567Z,9.87
2018-07-21T04:47:05.896Z,13.63
2018-07-21T04:49:34.168Z,9.23
2018-07-21T04:52:02.452Z,8.93
2018-07-21T04:54:30.709Z,7.53
2018-07-21T04:56:58.978Z,16.37
2018-07-21T04:59:27.320Z,9.60
2018-07-21T05:01:55.607Z,7.70
2018-07-21T05:04:23.869Z,9.27
2018-07-21T05:06:52.151Z,9.13
2018-07-21T05:09:20.419Z,9.30
2018-07-21T05:11:48.736Z,8.07
2018-07-21T05:14:17.032Z,8.00
2018-07-21T05:16:45.312Z,8.73
2018-07-21T05:19:13.970Z,9.87
2018-07-21T05:21:42.263Z,10.57
2018-07-21T05:24:10.555Z,7.30
2018-07-21T05:26:38.856Z,9.63
2018-07-21T05:29:07.152Z,6.63
2018-07-21T05:31:35.422Z,8.50
2018-07-21T05:34:03.761Z,8.50
2018-07-21T05:36:32.031Z,10.03
2018-07-21T05:39:00.374Z,6.47
2018-07-21T05:41:28.655Z,9.17
2018-07-21T05:43:56.910Z,7.73
2018-07-21T05:46:25.200Z,8.40
2018-07-21T05:48:53.464Z,8.03
2018-07-21T05:51:21.740Z,8.13
2018-07-21T05:53:50.047Z,8.17
2018-07-21T05:56:18.369Z,8.13
2018-07-21T05:58:46.655Z,9.00
2018-07-21T06:01:14.927Z,10.30
2018-07-21T06:03:43.186Z,8.40
2018-07-21T06:06:11.492Z,10.50
2018-07-21T06:08:39.826Z,9.37
2018-07-21T06:11:08.269Z,11.57
2018-07-21T06:13:36.641Z,7.77
2018-07-21T06:16:05.083Z,10.27
2018-07-21T06:18:33.413Z,8.90
2018-07-21T06:21:01.750Z,8.33
2018-07-21T06:23:30.209Z,6.47
2018-07-21T06:25:58.530Z,8.23
2018-07-21T06:28:27.496Z,10.00
2018-07-21T06:30:55.756Z,7.67
2018-07-21T06:33:24.289Z,7.47
2018-07-21T06:35:52.569Z,6.03
2018-07-21T06:38:20.973Z,6.17
2018-07-21T06:40:49.271Z,10.10
2018-07-21T06:43:17.631Z,6.60
2018-07-21T06:45:45.838Z,6.53
2018-07-21T06:48:14.129Z,7.53
2018-07-21T06:50:42.424Z,8.63
2018-07-21T06:53:10.723Z,8.47
2018-07-21T06:55:38.985Z,6.87
2018-07-21T06:58:08.160Z,8.50
2018-07-21T07:00:36.439Z,9.03
2018-07-21T07:03:04.768Z,7.60
2018-07-21T07:05:33.052Z,7.77
2018-07-21T07:08:01.324Z,7.93
2018-07-21T07:10:29.605Z,8.13
2018-07-21T07:12:57.908Z,9.90
2018-07-21T07:15:25.946Z,10.47
2018-07-21T07:17:54.640Z,7.50
2018-07-21T07:20:22.935Z,8.03
2018-07-21T07:22:51.221Z,8.70
2018-07-21T07:25:19.519Z,9.07
2018-07-21T07:27:47.881Z,9.07
2018-07-21T07:30:16.124Z,10.30
2018-07-21T07:32:44.388Z,9.17
2018-07-21T07:35:12.739Z,10.00
2018-07-21T07:37:40.979Z,10.20
2018-07-21T07:40:09.271Z,9.13
2018-07-21T07:42:37.584Z,9.63
2018-07-21T07:45:05.992Z,9.67
2018-07-21T07:47:34.284Z,9.00
2018-07-21T07:50:02.816Z,7.90
2018-07-21T07:52:31.093Z,9.93
2018-07-21T07:54:59.355Z,8.57
2018-07-21T07:57:27.649Z,8.20
2018-07-21T07:59:55.951Z,12.40
2018-07-21T08:02:24.248Z,8.03
2018-07-21T08:04:52.514Z,7.90
2018-07-21T08:07:20.868Z,7.77
2018-07-21T08:09:49.151Z,9.60
2018-07-21T08:12:17.451Z,9.43
2018-07-21T08:14:45.761Z,9.30
2018-07-21T08:17:14.026Z,9.73
2018-07-21T08:19:42.329Z,10.47
2018-07-21T08:22:10.600Z,11.07
2018-07-21T08:24:38.907Z,9.43
2018-07-21T08:27:07.228Z,9.53
2018-07-21T08:29:35.536Z,9.43
2018-07-21T08:32:03.805Z,11.67
2018-07-21T08:34:32.174Z,13.03
2018-07-21T08:37:00.409Z,11.67
2018-07-21T08:39:28.669Z,10.07
2018-07-21T08:44:31.692Z,12.10
2018-07-21T08:46:59.990Z,9.40
2018-07-21T08:49:28.300Z,10.97
2018-07-21T08:51:56.597Z,12.43
2018-07-21T08:54:24.883Z,10.87
2018-07-21T08:56:53.143Z,10.23
2018-07-21T08:59:21.435Z,13.57
2018-07-21T09:01:49.744Z,12.13
2018-07-21T09:04:18.038Z,10.63
2018-07-21T09:06:46.328Z,11.93
2018-07-21T09:09:14.626Z,10.60
2018-07-21T09:11:42.931Z,10.27
2018-07-21T09:14:11.259Z,15.47
2018-07-21T09:16:39.531Z,10.60
2018-07-21T09:19:07.866Z,11.83
2018-07-21T09:21:36.195Z,13.40
2018-07-21T09:24:04.468Z,11.13
2018-07-21T09:26:32.788Z,11.63
2018-07-21T09:29:01.099Z,13.07
2018-07-21T09:31:29.405Z,12.07
2018-07-21T09:33:57.709Z,12.93
2018-07-21T09:36:25.975Z,12.33
2018-07-21T09:38:54.281Z,13.20
2018-07-21T09:41:22.572Z,14.90
2018-07-21T09:43:50.857Z,14.10
2018-07-21T09:46:19.160Z,12.50
2018-07-21T09:48:47.472Z,12.63
2018-07-21T09:51:15.771Z,13.00
2018-07-21T09:53:44.061Z,12.03
2018-07-21T09:56:12.393Z,13.03
2018-07-21T09:58:40.713Z,17.30
2018-07-21T10:01:09.000Z,13.43
2018-07-21T10:03:37.293Z,13.47
2018-07-21T10:06:05.608Z,14.07
2018-07-21T10:08:33.899Z,13.27
2018-07-21T10:11:02.183Z,13.67
2018-07-21T10:13:30.458Z,12.37
2018-07-21T10:15:58.756Z,13.03
2018-07-21T10:18:27.068Z,14.57
2018-07-21T10:20:55.401Z,11.50
2018-07-21T10:23:23.667Z,12.83
2018-07-21T10:25:57.450Z,12.77
2018-07-21T10:28:31.192Z,14.60
2018-07-21T10:30:59.471Z,13.97
2018-07-21T10:33:27.799Z,14.57
2018-07-21T10:35:56.062Z,12.80
2018-07-21T10:38:24.075Z,13.37
2018-07-21T10:40:52.352Z,11.43
2018-07-21T10:43:20.646Z,12.73
2018-07-21T10:45:48.951Z,10.10
2018-07-21T10:48:17.259Z,10.83
2018-07-21T10:50:45.634Z,12.17
2018-07-21T10:53:14.004Z,11.13
2018-07-21T10:55:42.303Z,11.00
2018-07-21T10:58:10.609Z,12.33
2018-07-21T11:00:38.904Z,11.57
2018-07-21T11:03:16.406Z,11.73
2018-07-21T11:05:44.685Z,14.77
2018-07-21T11:08:12.695Z,13.97
2018-07-21T11:10:41.027Z,14.07
2018-07-21T11:13:09.311Z,11.37
2018-07-21T11:15:37.708Z,11.90
2018-07-21T11:18:05.972Z,12.33
2018-07-21T11:20:34.344Z,12.07
2018-07-21T11:23:02.673Z,16.23
2018-07-21T11:25:30.972Z,10.90
2018-07-21T11:27:59.267Z,11.77
2018-07-21T11:30:27.565Z,13.13
2018-07-21T11:32:55.862Z,13.23
2018-07-21T11:35:24.242Z,11.57
2018-07-21T11:37:52.438Z,10.97
2018-07-21T11:40:20.825Z,10.50
2018-07-21T11:42:49.108Z,10.97
2018-07-21T11:45:17.411Z,13.13
2018-07-21T11:47:45.693Z,11.00
2018-07-21T11:50:14.001Z,15.10
2018-07-21T11:52:42.277Z,13.03
2018-07-21T11:55:10.582Z,11.20
2018-07-21T11:57:38.863Z,11.23
2018-07-21T12:00:07.269Z,11.33
2018-07-21T12:02:35.560Z,12.40
2018-07-21T12:05:03.913Z,13.80
2018-07-21T12:07:32.198Z,11.30
2018-07-21T12:10:00.476Z,11.00
2018-07-21T12:12:28.809Z,12.57
2018-07-21T12:14:57.095Z,11.87
2018-07-21T12:17:25.427Z,14.10
2018-07-21T12:19:53.750Z,12.23
2018-07-21T12:22:22.060Z,14.20
2018-07-21T12:24:50.351Z,11.27
2018-07-21T12:27:18.737Z,11.03
2018-07-21T12:29:47.019Z,11.40
2018-07-21T12:32:15.689Z,11.53
2018-07-21T12:34:44.109Z,10.33
2018-07-21T12:37:12.396Z,11.67
2018-07-21T12:39:41.950Z,11.60
2018-07-21T12:42:10.269Z,11.87
2018-07-21T12:44:38.584Z,12.47
2018-07-21T12:47:06.937Z,13.00
2018-07-21T12:49:35.231Z,14.60
2018-07-21T12:52:04.503Z,13.60
2018-07-21T12:54:33.048Z,13.70
2018-07-21T12:57:01.450Z,13.57
2018-07-21T12:59:29.762Z,14.37
2018-07-21T13:01:58.077Z,13.97
2018-07-21T13:04:26.397Z,13.63
2018-07-21T13:06:54.712Z,13.50
2018-07-21T13:09:23.104Z,15.47
2018-07-21T13:11:51.594Z,13.63
2018-07-21T13:14:20.602Z,15.90
2018-07-21T13:16:48.956Z,15.53
2018-07-21T13:19:17.238Z,15.00
2018-07-21T13:21:45.682Z,14.57
2018-07-21T13:24:14.006Z,14.50
2018-07-21T13:26:42.359Z,15.30
2018-07-21T13:29:10.675Z,15.83
2018-07-21T13:31:39.007Z,14.00
2018-07-21T13:34:07.791Z,14.73
2018-07-21T13:36:36.117Z,14.00
2018-07-21T13:39:07.604Z,13.80
2018-07-21T13:41:35.924Z,13.47
2018-07-21T13:44:04.259Z,14.17
2018-07-21T13:46:32.677Z,15.03
2018-07-21T13:49:01.029Z,13.80
2018-07-21T13:51:30.483Z,14.93
2018-07-21T13:53:58.882Z,15.70
2018-07-21T13:56:27.799Z,16.37
2018-07-21T13:58:56.124Z,15.23
2018-07-21T14:01:24.476Z,16.77
2018-07-21T14:03:52.793Z,16.37
2018-07-21T14:06:21.097Z,16.43
2018-07-21T14:08:49.424Z,14.67
2018-07-21T14:11:17.771Z,14.50
2018-07-21T14:13:46.101Z,16.07
2018-07-21T14:16:14.486Z,14.53
2018-07-21T14:18:42.810Z,13.77
2018-07-21T14:21:11.136Z,14.73
2018-07-21T14:23:39.468Z,14.20
2018-07-21T14:26:07.907Z,16.07
2018-07-21T14:28:36.280Z,13.10
2018-07-21T14:31:04.584Z,13.27
2018-07-21T14:33:32.862Z,13.37
2018-07-21T14:36:01.270Z,13.23
2018-07-21T14:38:29.496Z,13.57
2018-07-21T14:40:57.810Z,15.03
2018-07-21T14:43:26.099Z,14.97
2018-07-21T14:45:54.380Z,14.53
2018-07-21T14:48:22.681Z,13.83
2018-07-21T14:50:50.971Z,14.47
2018-07-21T14:53:19.275Z,14.00
2018-07-21T14:55:47.556Z,13.77
2018-07-21T14:58:15.846Z,13.87
2018-07-21T15:00:44.198Z,12.20
2018-07-21T15:03:12.485Z,13.13
2018-07-21T15:05:40.811Z,12.17
2018-07-21T15:08:09.133Z,11.90
2018-07-21T15:10:37.623Z,11.60
2018-07-21T15:13:05.924Z,12.27
2018-07-21T15:15:34.272Z,11.40
2018-07-21T15:18:02.559Z,11.33
2018-07-21T15:20:30.841Z,11.23
2018-07-21T15:22:59.108Z,9.77
2018-07-21T15:25:27.395Z,10.87
2018-07-21T15:27:55.698Z,10.90
2018-07-21T15:30:23.988Z,11.13
2018-07-21T15:32:52.267Z,10.97
2018-07-21T15:35:20.552Z,8.93
2018-07-21T15:37:48.818Z,9.57
2018-07-21T15:40:17.113Z,9.53
2018-07-21T15:42:45.385Z,9.90
2018-07-21T15:45:13.691Z,12.87
2018-07-21T15:47:42.013Z,10.43
2018-07-21T15:50:10.275Z,9.90
2018-07-21T15:52:38.551Z,10.57
2018-07-21T15:55:06.852Z,11.20
2018-07-21T15:57:35.134Z,12.37
2018-07-21T16:00:03.483Z,11.20
2018-07-21T16:02:31.793Z,10.23
2018-07-21T16:05:00.082Z,10.33
2018-07-21T16:07:28.371Z,12.03
2018-07-21T16:09:56.646Z,11.10
2018-07-21T16:12:24.922Z,10.93
2018-07-21T16:14:53.258Z,11.13
2018-07-21T16:17:21.566Z,10.90
2018-07-21T16:19:49.826Z,9.90
2018-07-21T16:22:18.180Z,9.07
2018-07-21T16:24:46.468Z,10.03
2018-07-21T16:27:14.813Z,9.73
2018-07-21T16:29:43.109Z,10.97
2018-07-21T16:32:12.476Z,10.97
2018-07-21T16:34:41.758Z,11.30
2018-07-21T16:37:10.974Z,10.33
2018-07-21T16:39:39.666Z,11.40
2018-07-21T16:42:08.016Z,10.80
2018-07-21T16:44:36.315Z,10.00
2018-07-21T16:47:04.787Z,10.43
2018-07-21T16:49:33.101Z,10.90
2018-07-21T16:52:01.370Z,11.77
2018-07-21T16:54:29.653Z,12.50
2018-07-21T16:56:58.016Z,12.43
2018-07-21T16:59:26.356Z,13.87
2018-07-21T17:01:54.736Z,11.40
2018-07-21T17:04:23.161Z,11.93
2018-07-21T17:06:51.451Z,12.03
2018-07-21T17:09:20.674Z,12.37
2018-07-21T17:11:48.963Z,11.90
2018-07-21T17:14:17.344Z,11.67
2018-07-21T17:16:45.696Z,12.67
2018-07-21T17:19:13.984Z,13.43
2018-07-21T17:21:42.271Z,11.87
2018-07-21T17:24:10.585Z,12.27
2018-07-21T17:26:38.943Z,12.10
2018-07-21T17:29:07.257Z,12.37
2018-07-21T17:31:35.612Z,13.97
2018-07-21T17:34:04.010Z,11.73
2018-07-21T17:36:32.374Z,11.40
2018-07-21T17:39:00.706Z,11.53
2018-07-21T17:41:29.006Z,11.17
2018-07-21T17:43:57.048Z,11.60
2018-07-21T17:46:25.388Z,11.13
2018-07-21T17:48:53.745Z,11.40
2018-07-21T17:51:22.143Z,11.90
2018-07-21T17:53:50.615Z,11.47
2018-07-21T17:56:19.084Z,11.90
2018-07-21T17:58:47.426Z,13.53
2018-07-21T18:01:15.769Z,14.47
2018-07-21T18:03:44.144Z,13.97
2018-07-21T18:06:12.620Z,13.23
2018-07-21T18:08:40.997Z,13.00
2018-07-21T18:11:09.392Z,15.67
2018-07-21T18:13:37.720Z,12.03
2018-07-21T18:16:06.055Z,12.60
2018-07-21T18:18:34.391Z,11.50
2018-07-21T18:21:02.729Z,10.43
2018-07-21T18:23:31.056Z,12.83
2018-07-21T18:25:59.446Z,11.80
2018-07-21T18:28:27.813Z,11.23
2018-07-21T18:30:56.241Z,11.50
2018-07-21T18:33:24.580Z,12.07
2018-07-21T18:35:52.888Z,12.77
2018-07-21T18:38:21.200Z,12.30
2018-07-21T18:40:49.480Z,13.70
2018-07-21T18:43:17.906Z,14.37
2018-07-21T18:45:46.388Z,13.07
2018-07-21T18:48:14.906Z,14.97
2018-07-21T18:50:43.272Z,15.27
2018-07-21T18:53:11.595Z,15.17
2018-07-21T18:55:40.023Z,14.50
2018-07-21T18:58:08.393Z,13.80
2018-07-21T19:00:36.729Z,13.70
2018-07-21T19:03:05.094Z,13.90
2018-07-21T19:05:33.433Z,14.57
2018-07-21T19:08:01.799Z,12.70
2018-07-21T19:10:30.177Z,14.10
2018-07-21T19:12:58.529Z,14.40
2018-07-21T19:15:32.331Z,14.63
2018-07-21T19:18:00.804Z,16.07
2018-07-21T19:20:34.508Z,15.37
2018-07-21T19:23:02.916Z,17.77
2018-07-21T19:25:36.667Z,16.33
2018-07-21T19:28:04.989Z,14.90
2018-07-21T19:30:33.377Z,16.23
2018-07-21T19:33:01.811Z,16.53
2018-07-21T19:35:31.058Z,15.20
2018-07-21T19:37:59.344Z,16.10
2018-07-21T19:40:27.696Z,17.37
2018-07-21T19:42:55.974Z,16.27
2018-07-21T19:45:24.269Z,16.43
2018-07-21T19:47:52.639Z,17.43
2018-07-21T19:50:20.897Z,17.27
2018-07-21T19:52:49.219Z,18.60
2018-07-21T19:55:17.581Z,17.80
2018-07-21T19:57:45.888Z,18.10
2018-07-21T20:00:14.199Z,17.73
2018-07-21T20:02:42.531Z,18.20
2018-07-21T20:05:10.856Z,19.30
2018-07-21T20:07:39.252Z,18.77
2018-07-21T20:10:07.674Z,19.50
2018-07-21T20:12:36.028Z,19.53
2018-07-21T20:15:04.458Z,19.93
2018-07-21T20:17:32.774Z,19.93
2018-07-21T20:20:01.029Z,19.23
2018-07-21T20:22:29.424Z,19.27
2018-07-21T20:24:58.416Z,18.80
2018-07-21T20:27:26.835Z,18.20
2018-07-21T20:29:55.189Z,17.80
2018-07-21T20:32:23.592Z,18.13
2018-07-21T20:34:51.928Z,16.80
2018-07-21T20:37:20.336Z,15.77
2018-07-21T20:39:48.715Z,16.60
2018-07-21T20:42:17.099Z,15.33
2018-07-21T20:44:45.492Z,15.13
2018-07-21T20:47:13.811Z,15.53
2018-07-21T20:49:42.231Z,17.43
2018-07-21T20:52:10.708Z,15.50
2018-07-21T20:54:39.085Z,14.30
2018-07-21T20:57:07.573Z,16.00
2018-07-21T20:59:35.839Z,17.40
2018-07-21T21:02:04.256Z,15.97
2018-07-21T21:04:32.589Z,15.03
2018-07-21T21:07:00.997Z,15.50
2018-07-21T21:09:29.338Z,14.60
2018-07-21T21:11:57.728Z,14.83
2018-07-21T21:14:26.103Z,14.50
2018-07-21T21:16:54.452Z,16.00
2018-07-21T21:19:22.740Z,17.23
2018-07-21T21:21:51.031Z,23.13
2018-07-21T21:24:19.341Z,20.53
2018-07-21T21:26:47.733Z,21.40
2018-07-21T21:29:16.042Z,19.67
2018-07-21T21:31:44.361Z,16.10
2018-07-21T21:34:12.683Z,16.27
2018-07-21T21:36:40.998Z,15.13
2018-07-21T21:39:11.124Z,15.43
2018-07-21T21:41:39.514Z,14.03
2018-07-21T21:44:07.994Z,14.20
2018-07-21T21:46:36.285Z,15.30
2018-07-21T21:49:04.586Z,16.67
2018-07-21T21:51:32.860Z,18.43
2018-07-21T21:54:01.236Z,18.53
2018-07-21T21:56:29.763Z,17.00
2018-07-21T21:58:58.056Z,16.70
2018-07-21T22:01:26.360Z,17.07
2018-07-21T22:03:54.652Z,18.50
2018-07-21T22:06:22.928Z,17.50
2018-07-21T22:08:51.233Z,15.73
2018-07-21T22:11:19.515Z,17.33
2018-07-21T22:13:47.814Z,16.70
2018-07-21T22:16:16.076Z,16.67
2018-07-21T22:18:44.375Z,16.90
2018-07-21T22:21:12.629Z,16.60
2018-07-21T22:23:40.955Z,19.10
2018-07-21T22:26:09.237Z,17.73
2018-07-21T22:28:37.561Z,17.13
2018-07-21T22:31:05.903Z,16.67
2018-07-21T22:33:34.255Z,16.70
2018-07-21T22:36:02.540Z,15.67
2018-07-21T22:38:30.840Z,17.67
2018-07-21T22:40:59.190Z,15.53
2018-07-21T22:43:27.487Z,14.43
2018-07-21T22:45:55.807Z,15.40
2018-07-21T22:48:24.096Z,14.73
2018-07-21T22:50:52.426Z,14.63
2018-07-21T22:53:20.720Z,15.40
2018-07-21T22:55:48.980Z,16.03
2018-07-21T22:58:17.286Z,16.33
2018-07-21T23:00:45.584Z,15.57
2018-07-21T23:03:13.891Z,16.43
2018-07-21T23:05:42.182Z,17.40
2018-07-21T23:08:10.489Z,19.30
2018-07-21T23:10:38.773Z,18.53
2018-07-21T23:13:07.519Z,19.80
2018-07-21T23:15:35.858Z,20.23
2018-07-21T23:18:04.131Z,20.53
2018-07-21T23:20:32.416Z,20.00
2018-07-21T23:23:00.695Z,21.67
2018-07-21T23:25:28.977Z,21.60
2018-07-21T23:27:57.287Z,22.23
2018-07-21T23:30:25.605Z,22.80
2018-07-21T23:32:53.935Z,21.80
2018-07-21T23:35:22.273Z,22.83
2018-07-21T23:37:50.578Z,24.33
2018-07-21T23:40:18.910Z,24.47
2018-07-21T23:42:47.230Z,23.33
2018-07-21T23:45:15.538Z,23.60
2018-07-21T23:47:43.875Z,23.77
2018-07-21T23:50:12.186Z,23.50
2018-07-21T23:52:40.499Z,23.17
2018-07-21T23:55:09.213Z,23.37
2018-07-21T23:57:38.025Z,24.10
